sensor_id;sensor_type;location;lat;lon;timestamp;P1;durP1;ratioP1;P2;durP2;ratioP2
28774;SDS011;15926;51.348;6.596;2023-01-13T00:01:17;0.73;;;0.73;;
28774;SDS011;15926;51.348;6.596;2023-01-13T00:03:44;0.70;;;0.68;;
28774;SDS011;15926;51.348;6.596;2023-01-13T00:06:17;1.73;;;0.65;;
28774;SDS011;15926;51.348;6.596;2023-01-13T00:08:46;1.63;;;0.60;;
28774;SDS011;15926;51.348;6.596;2023-01-13T00:11:12;2.05;;;0.40;;
28774;SDS011;15926;51.348;6.596;2023-01-13T00:13:38;0.70;;;0.60;;
28774;SDS011;15926;51.348;6.596;2023-01-13T00:16:07;1.27;;;0.50;;
28774;SDS011;15926;51.348;6.596;2023-01-13T00:18:33;1.73;;;0.40;;
28774;SDS011;15926;51.348;6.596;2023-01-13T00:21:02;2.90;;;0.60;;
28774;SDS011;15926;51.348;6.596;2023-01-13T00:23:28;1.38;;;0.43;;
28774;SDS011;15926;51.348;6.596;2023-01-13T00:25:55;1.35;;;0.43;;
28774;SDS011;15926;51.348;6.596;2023-01-13T00:28:21;1.85;;;0.50;;
28774;SDS011;15926;51.348;6.596;2023-01-13T00:30:47;0.40;;;0.30;;
28774;SDS011;15926;51.348;6.596;2023-01-13T00:33:13;1.55;;;0.57;;
28774;SDS011;15926;51.348;6.596;2023-01-13T00:35:39;0.93;;;0.50;;
28774;SDS011;15926;51.348;6.596;2023-01-13T00:38:05;1.70;;;0.80;;
28774;SDS011;15926;51.348;6.596;2023-01-13T00:40:31;1.65;;;0.50;;
28774;SDS011;15926;51.348;6.596;2023-01-13T00:42:57;2.10;;;0.50;;
28774;SDS011;15926;51.348;6.596;2023-01-13T00:45:53;2.47;;;0.60;;
28774;SDS011;15926;51.348;6.596;2023-01-13T00:48:19;0.73;;;0.50;;
28774;SDS011;15926;51.348;6.596;2023-01-13T00:50:45;1.83;;;0.55;;
28774;SDS011;15926;51.348;6.596;2023-01-13T00:53:11;4.65;;;0.90;;
28774;SDS011;15926;51.348;6.596;2023-01-13T00:55:38;2.20;;;0.50;;
28774;SDS011;15926;51.348;6.596;2023-01-13T00:58:05;2.67;;;0.68;;
28774;SDS011;15926;51.348;6.596;2023-01-13T01:00:31;4.60;;;0.57;;
28774;SDS011;15926;51.348;6.596;2023-01-13T01:02:57;3.38;;;0.55;;
28774;SDS011;15926;51.348;6.596;2023-01-13T01:05:23;3.28;;;0.65;;
28774;SDS011;15926;51.348;6.596;2023-01-13T01:07:49;5.22;;;0.70;;
28774;SDS011;15926;51.348;6.596;2023-01-13T01:10:15;2.65;;;0.60;;
28774;SDS011;15926;51.348;6.596;2023-01-13T01:12:42;4.82;;;0.60;;
28774;SDS011;15926;51.348;6.596;2023-01-13T01:15:08;4.85;;;0.77;;
28774;SDS011;15926;51.348;6.596;2023-01-13T01:17:34;5.15;;;0.95;;
28774;SDS011;15926;51.348;6.596;2023-01-13T01:20:01;5.60;;;1.15;;
28774;SDS011;15926;51.348;6.596;2023-01-13T01:22:27;2.53;;;0.70;;
28774;SDS011;15926;51.348;6.596;2023-01-13T01:24:53;6.43;;;1.27;;
28774;SDS011;15926;51.348;6.596;2023-01-13T01:27:19;5.38;;;1.05;;
28774;SDS011;15926;51.348;6.596;2023-01-13T01:29:45;4.70;;;0.95;;
28774;SDS011;15926;51.348;6.596;2023-01-13T01:32:11;3.58;;;0.90;;
28774;SDS011;15926;51.348;6.596;2023-01-13T01:34:37;4.28;;;0.80;;
28774;SDS011;15926;51.348;6.596;2023-01-13T01:37:03;6.97;;;1.00;;
28774;SDS011;15926;51.348;6.596;2023-01-13T01:39:30;10.50;;;1.27;;
28774;SDS011;15926;51.348;6.596;2023-01-13T01:41:56;6.15;;;1.05;;
28774;SDS011;15926;51.348;6.596;2023-01-13T01:47:10;9.88;;;1.40;;
28774;SDS011;15926;51.348;6.596;2023-01-13T01:49:39;8.20;;;1.27;;
28774;SDS011;15926;51.348;6.596;2023-01-13T01:52:07;2.20;;;1.05;;
28774;SDS011;15926;51.348;6.596;2023-01-13T01:54:35;7.05;;;1.05;;
28774;SDS011;15926;51.348;6.596;2023-01-13T01:57:04;10.02;;;1.20;;
28774;SDS011;15926;51.348;6.596;2023-01-13T01:59:31;9.75;;;1.00;;
28774;SDS011;15926;51.348;6.596;2023-01-13T02:01:58;4.78;;;1.02;;
28774;SDS011;15926;51.348;6.596;2023-01-13T02:04:25;4.45;;;1.13;;
28774;SDS011;15926;51.348;6.596;2023-01-13T02:06:52;4.70;;;1.00;;
28774;SDS011;15926;51.348;6.596;2023-01-13T02:09:20;5.07;;;1.25;;
28774;SDS011;15926;51.348;6.596;2023-01-13T02:11:46;8.88;;;1.23;;
28774;SDS011;15926;51.348;6.596;2023-01-13T02:14:31;8.63;;;1.55;;
28774;SDS011;15926;51.348;6.596;2023-01-13T02:17:17;8.57;;;1.10;;
28774;SDS011;15926;51.348;6.596;2023-01-13T02:22:25;8.02;;;1.13;;
28774;SDS011;15926;51.348;6.596;2023-01-13T02:25:04;11.90;;;1.35;;
28774;SDS011;15926;51.348;6.596;2023-01-13T02:39:21;6.88;;;0.90;;
28774;SDS011;15926;51.348;6.596;2023-01-13T02:41:30;9.90;;;1.05;;
28774;SDS011;15926;51.348;6.596;2023-01-13T02:44:19;15.85;;;1.45;;
28774;SDS011;15926;51.348;6.596;2023-01-13T02:49:14;9.73;;;1.65;;
28774;SDS011;15926;51.348;6.596;2023-01-13T02:51:43;12.27;;;1.48;;
28774;SDS011;15926;51.348;6.596;2023-01-13T02:54:16;8.65;;;1.70;;
28774;SDS011;15926;51.348;6.596;2023-01-13T02:56:43;10.40;;;1.70;;
28774;SDS011;15926;51.348;6.596;2023-01-13T02:59:12;14.38;;;1.80;;
28774;SDS011;15926;51.348;6.596;2023-01-13T03:01:38;8.82;;;1.23;;
28774;SDS011;15926;51.348;6.596;2023-01-13T03:04:41;7.53;;;1.27;;
28774;SDS011;15926;51.348;6.596;2023-01-13T03:07:05;9.05;;;1.75;;
28774;SDS011;15926;51.348;6.596;2023-01-13T03:09:38;8.90;;;1.42;;
28774;SDS011;15926;51.348;6.596;2023-01-13T03:12:14;9.02;;;1.48;;
28774;SDS011;15926;51.348;6.596;2023-01-13T03:14:49;8.88;;;1.40;;
28774;SDS011;15926;51.348;6.596;2023-01-13T03:17:26;7.40;;;1.13;;
28774;SDS011;15926;51.348;6.596;2023-01-13T03:20:02;10.68;;;1.20;;
28774;SDS011;15926;51.348;6.596;2023-01-13T03:22:34;6.25;;;1.00;;
28774;SDS011;15926;51.348;6.596;2023-01-13T03:25:06;10.18;;;1.13;;
28774;SDS011;15926;51.348;6.596;2023-01-13T03:30:14;9.07;;;1.05;;
28774;SDS011;15926;51.348;6.596;2023-01-13T03:32:41;6.90;;;0.80;;
28774;SDS011;15926;51.348;6.596;2023-01-13T03:37:35;2.97;;;0.93;;
28774;SDS011;15926;51.348;6.596;2023-01-13T03:40:04;3.42;;;0.93;;
28774;SDS011;15926;51.348;6.596;2023-01-13T03:42:32;8.75;;;1.00;;
28774;SDS011;15926;51.348;6.596;2023-01-13T03:45:02;9.48;;;0.70;;
28774;SDS011;15926;51.348;6.596;2023-01-13T03:47:40;7.25;;;1.08;;
28774;SDS011;15926;51.348;6.596;2023-01-13T03:50:13;3.13;;;0.80;;
28774;SDS011;15926;51.348;6.596;2023-01-13T03:52:44;8.18;;;0.80;;
28774;SDS011;15926;51.348;6.596;2023-01-13T03:55:13;4.22;;;0.55;;
28774;SDS011;15926;51.348;6.596;2023-01-13T03:57:42;3.13;;;0.90;;
28774;SDS011;15926;51.348;6.596;2023-01-13T04:00:10;4.85;;;1.10;;
28774;SDS011;15926;51.348;6.596;2023-01-13T04:02:48;7.28;;;1.00;;
28774;SDS011;15926;51.348;6.596;2023-01-13T04:05:15;5.78;;;0.90;;
28774;SDS011;15926;51.348;6.596;2023-01-13T04:07:55;4.30;;;0.82;;
28774;SDS011;15926;51.348;6.596;2023-01-13T04:10:37;4.45;;;0.90;;
28774;SDS011;15926;51.348;6.596;2023-01-13T04:13:06;8.70;;;1.10;;
28774;SDS011;15926;51.348;6.596;2023-01-13T04:15:36;6.60;;;0.85;;
28774;SDS011;15926;51.348;6.596;2023-01-13T04:18:11;7.50;;;1.25;;
28774;SDS011;15926;51.348;6.596;2023-01-13T04:20:37;6.57;;;0.70;;
28774;SDS011;15926;51.348;6.596;2023-01-13T04:23:04;3.40;;;1.17;;
28774;SDS011;15926;51.348;6.596;2023-01-13T04:25:30;3.30;;;0.63;;
28774;SDS011;15926;51.348;6.596;2023-01-13T04:27:56;3.92;;;0.95;;
28774;SDS011;15926;51.348;6.596;2023-01-13T04:30:22;5.88;;;1.08;;
28774;SDS011;15926;51.348;6.596;2023-01-13T04:32:48;6.13;;;1.15;;
28774;SDS011;15926;51.348;6.596;2023-01-13T04:35:14;7.65;;;0.85;;
28774;SDS011;15926;51.348;6.596;2023-01-13T04:37:40;9.15;;;1.30;;
28774;SDS011;15926;51.348;6.596;2023-01-13T04:40:06;10.00;;;1.20;;
28774;SDS011;15926;51.348;6.596;2023-01-13T04:42:33;4.93;;;0.90;;
28774;SDS011;15926;51.348;6.596;2023-01-13T04:44:58;12.15;;;1.33;;
28774;SDS011;15926;51.348;6.596;2023-01-13T04:47:25;17.42;;;1.88;;
28774;SDS011;15926;51.348;6.596;2023-01-13T04:49:50;10.30;;;1.27;;
28774;SDS011;15926;51.348;6.596;2023-01-13T04:52:16;11.70;;;2.13;;
28774;SDS011;15926;51.348;6.596;2023-01-13T04:54:42;14.52;;;2.10;;
28774;SDS011;15926;51.348;6.596;2023-01-13T04:57:08;11.60;;;1.40;;
28774;SDS011;15926;51.348;6.596;2023-01-13T04:59:34;11.75;;;1.75;;
28774;SDS011;15926;51.348;6.596;2023-01-13T05:02:00;8.63;;;1.65;;
28774;SDS011;15926;51.348;6.596;2023-01-13T05:04:26;8.75;;;1.45;;
28774;SDS011;15926;51.348;6.596;2023-01-13T05:06:52;9.80;;;1.38;;
28774;SDS011;15926;51.348;6.596;2023-01-13T05:09:18;6.20;;;1.10;;
28774;SDS011;15926;51.348;6.596;2023-01-13T05:11:44;6.88;;;1.10;;
28774;SDS011;15926;51.348;6.596;2023-01-13T05:14:29;10.05;;;1.08;;
28774;SDS011;15926;51.348;6.596;2023-01-13T05:17:22;6.97;;;1.20;;
28774;SDS011;15926;51.348;6.596;2023-01-13T05:19:49;7.22;;;1.60;;
28774;SDS011;15926;51.348;6.596;2023-01-13T05:22:15;8.30;;;1.52;;
28774;SDS011;15926;51.348;6.596;2023-01-13T05:25:00;6.15;;;0.70;;
28774;SDS011;15926;51.348;6.596;2023-01-13T05:27:45;3.38;;;1.05;;
28774;SDS011;15926;51.348;6.596;2023-01-13T05:30:11;2.13;;;1.00;;
28774;SDS011;15926;51.348;6.596;2023-01-13T05:32:37;7.40;;;0.88;;
28774;SDS011;15926;51.348;6.596;2023-01-13T05:35:03;6.28;;;1.23;;
28774;SDS011;15926;51.348;6.596;2023-01-13T05:37:29;4.22;;;0.95;;
28774;SDS011;15926;51.348;6.596;2023-01-13T05:39:55;10.02;;;1.60;;
28774;SDS011;15926;51.348;6.596;2023-01-13T05:42:39;8.43;;;1.23;;
28774;SDS011;15926;51.348;6.596;2023-01-13T05:45:24;9.95;;;1.13;;
28774;SDS011;15926;51.348;6.596;2023-01-13T05:47:50;12.52;;;1.85;;
28774;SDS011;15926;51.348;6.596;2023-01-13T05:50:16;10.77;;;1.73;;
28774;SDS011;15926;51.348;6.596;2023-01-13T05:52:42;6.22;;;1.15;;
28774;SDS011;15926;51.348;6.596;2023-01-13T05:55:09;9.60;;;1.33;;
28774;SDS011;15926;51.348;6.596;2023-01-13T05:57:35;7.82;;;1.60;;
28774;SDS011;15926;51.348;6.596;2023-01-13T06:00:02;8.13;;;1.23;;
28774;SDS011;15926;51.348;6.596;2023-01-13T06:02:28;7.28;;;0.77;;
28774;SDS011;15926;51.348;6.596;2023-01-13T06:04:54;3.72;;;0.80;;
28774;SDS011;15926;51.348;6.596;2023-01-13T06:07:20;3.28;;;1.08;;
28774;SDS011;15926;51.348;6.596;2023-01-13T06:09:46;15.20;;;1.52;;
28774;SDS011;15926;51.348;6.596;2023-01-13T06:12:12;8.98;;;1.20;;
28774;SDS011;15926;51.348;6.596;2023-01-13T06:14:39;4.55;;;1.02;;
28774;SDS011;15926;51.348;6.596;2023-01-13T06:17:09;4.82;;;1.02;;
28774;SDS011;15926;51.348;6.596;2023-01-13T06:19:35;4.65;;;1.20;;
28774;SDS011;15926;51.348;6.596;2023-01-13T06:22:23;5.68;;;1.00;;
28774;SDS011;15926;51.348;6.596;2023-01-13T06:24:50;7.50;;;1.40;;
28774;SDS011;15926;51.348;6.596;2023-01-13T06:27:17;10.65;;;1.25;;
28774;SDS011;15926;51.348;6.596;2023-01-13T06:29:44;4.53;;;0.68;;
28774;SDS011;15926;51.348;6.596;2023-01-13T06:32:11;10.38;;;1.13;;
28774;SDS011;15926;51.348;6.596;2023-01-13T06:34:38;8.40;;;1.52;;
28774;SDS011;15926;51.348;6.596;2023-01-13T06:37:05;6.57;;;1.10;;
28774;SDS011;15926;51.348;6.596;2023-01-13T06:39:31;4.75;;;0.90;;
28774;SDS011;15926;51.348;6.596;2023-01-13T06:41:59;6.07;;;1.40;;
28774;SDS011;15926;51.348;6.596;2023-01-13T06:44:44;4.80;;;1.20;;
28774;SDS011;15926;51.348;6.596;2023-01-13T06:47:10;6.45;;;1.63;;
28774;SDS011;15926;51.348;6.596;2023-01-13T06:49:36;7.38;;;1.27;;
28774;SDS011;15926;51.348;6.596;2023-01-13T06:52:02;8.30;;;1.10;;
28774;SDS011;15926;51.348;6.596;2023-01-13T06:54:28;3.83;;;1.15;;
28774;SDS011;15926;51.348;6.596;2023-01-13T06:56:54;6.43;;;1.10;;
28774;SDS011;15926;51.348;6.596;2023-01-13T06:59:20;10.23;;;1.38;;
28774;SDS011;15926;51.348;6.596;2023-01-13T07:01:46;10.13;;;1.23;;
28774;SDS011;15926;51.348;6.596;2023-01-13T07:04:12;5.25;;;1.00;;
28774;SDS011;15926;51.348;6.596;2023-01-13T07:06:38;5.47;;;1.08;;
28774;SDS011;15926;51.348;6.596;2023-01-13T07:09:04;6.35;;;0.90;;
28774;SDS011;15926;51.348;6.596;2023-01-13T07:11:30;8.32;;;1.33;;
28774;SDS011;15926;51.348;6.596;2023-01-13T07:13:56;6.10;;;1.13;;
28774;SDS011;15926;51.348;6.596;2023-01-13T07:16:41;4.82;;;1.10;;
28774;SDS011;15926;51.348;6.596;2023-01-13T07:19:08;3.67;;;0.88;;
28774;SDS011;15926;51.348;6.596;2023-01-13T07:21:34;8.50;;;1.00;;
28774;SDS011;15926;51.348;6.596;2023-01-13T07:24:00;8.32;;;1.00;;
28774;SDS011;15926;51.348;6.596;2023-01-13T07:26:26;7.40;;;1.17;;
28774;SDS011;15926;51.348;6.596;2023-01-13T07:28:52;5.38;;;1.38;;
28774;SDS011;15926;51.348;6.596;2023-01-13T07:31:19;5.20;;;1.08;;
28774;SDS011;15926;51.348;6.596;2023-01-13T07:33:45;3.13;;;1.00;;
28774;SDS011;15926;51.348;6.596;2023-01-13T07:36:12;7.07;;;1.40;;
28774;SDS011;15926;51.348;6.596;2023-01-13T07:38:38;9.75;;;1.20;;
28774;SDS011;15926;51.348;6.596;2023-01-13T07:41:04;4.03;;;1.05;;
28774;SDS011;15926;51.348;6.596;2023-01-13T07:43:50;9.02;;;1.08;;
28774;SDS011;15926;51.348;6.596;2023-01-13T07:46:16;7.47;;;1.20;;
28774;SDS011;15926;51.348;6.596;2023-01-13T07:48:42;9.10;;;1.48;;
28774;SDS011;15926;51.348;6.596;2023-01-13T07:51:09;6.18;;;1.10;;
28774;SDS011;15926;51.348;6.596;2023-01-13T07:53:35;8.75;;;1.77;;
28774;SDS011;15926;51.348;6.596;2023-01-13T07:56:02;7.45;;;0.98;;
28774;SDS011;15926;51.348;6.596;2023-01-13T07:58:28;4.93;;;0.85;;
28774;SDS011;15926;51.348;6.596;2023-01-13T08:00:55;7.20;;;1.30;;
28774;SDS011;15926;51.348;6.596;2023-01-13T08:03:21;7.15;;;1.10;;
28774;SDS011;15926;51.348;6.596;2023-01-13T08:05:48;6.97;;;1.25;;
28774;SDS011;15926;51.348;6.596;2023-01-13T08:08:14;5.50;;;0.90;;
28774;SDS011;15926;51.348;6.596;2023-01-13T08:10:40;9.60;;;1.48;;
28774;SDS011;15926;51.348;6.596;2023-01-13T08:13:16;6.97;;;1.20;;
28774;SDS011;15926;51.348;6.596;2023-01-13T08:15:49;7.68;;;1.00;;
28774;SDS011;15926;51.348;6.596;2023-01-13T08:18:15;6.65;;;1.15;;
28774;SDS011;15926;51.348;6.596;2023-01-13T08:20:44;11.63;;;1.55;;
28774;SDS011;15926;51.348;6.596;2023-01-13T08:23:10;8.80;;;1.02;;
28774;SDS011;15926;51.348;6.596;2023-01-13T08:25:36;14.30;;;1.30;;
28774;SDS011;15926;51.348;6.596;2023-01-13T08:28:02;10.73;;;1.65;;
28774;SDS011;15926;51.348;6.596;2023-01-13T08:30:28;9.23;;;1.33;;
28774;SDS011;15926;51.348;6.596;2023-01-13T08:32:54;6.85;;;1.35;;
28774;SDS011;15926;51.348;6.596;2023-01-13T08:35:20;7.28;;;1.80;;
28774;SDS011;15926;51.348;6.596;2023-01-13T08:37:47;8.60;;;1.30;;
28774;SDS011;15926;51.348;6.596;2023-01-13T08:40:16;7.05;;;1.02;;
28774;SDS011;15926;51.348;6.596;2023-01-13T08:42:43;8.68;;;1.35;;
28774;SDS011;15926;51.348;6.596;2023-01-13T08:45:09;8.20;;;1.10;;
28774;SDS011;15926;51.348;6.596;2023-01-13T08:47:35;9.32;;;1.00;;
28774;SDS011;15926;51.348;6.596;2023-01-13T08:50:01;7.95;;;1.52;;
28774;SDS011;15926;51.348;6.596;2023-01-13T08:52:28;3.80;;;1.42;;
28774;SDS011;15926;51.348;6.596;2023-01-13T08:54:54;6.00;;;1.30;;
28774;SDS011;15926;51.348;6.596;2023-01-13T08:57:20;11.27;;;1.65;;
28774;SDS011;15926;51.348;6.596;2023-01-13T08:59:46;10.15;;;1.38;;
28774;SDS011;15926;51.348;6.596;2023-01-13T09:02:13;9.18;;;1.25;;
28774;SDS011;15926;51.348;6.596;2023-01-13T09:04:39;7.25;;;0.90;;
28774;SDS011;15926;51.348;6.596;2023-01-13T09:07:05;11.90;;;2.28;;
28774;SDS011;15926;51.348;6.596;2023-01-13T09:09:31;4.90;;;1.45;;
28774;SDS011;15926;51.348;6.596;2023-01-13T09:11:57;9.38;;;1.55;;
28774;SDS011;15926;51.348;6.596;2023-01-13T09:14:42;5.45;;;1.05;;
28774;SDS011;15926;51.348;6.596;2023-01-13T09:17:08;9.70;;;1.52;;
28774;SDS011;15926;51.348;6.596;2023-01-13T09:19:34;13.02;;;1.73;;
28774;SDS011;15926;51.348;6.596;2023-01-13T09:22:00;13.38;;;1.17;;
28774;SDS011;15926;51.348;6.596;2023-01-13T09:24:27;13.88;;;1.73;;
28774;SDS011;15926;51.348;6.596;2023-01-13T09:26:53;10.75;;;1.67;;
28774;SDS011;15926;51.348;6.596;2023-01-13T09:29:19;7.53;;;1.58;;
28774;SDS011;15926;51.348;6.596;2023-01-13T09:31:45;9.85;;;1.23;;
28774;SDS011;15926;51.348;6.596;2023-01-13T09:34:15;15.70;;;2.80;;
28774;SDS011;15926;51.348;6.596;2023-01-13T09:37:00;14.60;;;1.95;;
28774;SDS011;15926;51.348;6.596;2023-01-13T09:39:26;11.57;;;1.63;;
28774;SDS011;15926;51.348;6.596;2023-01-13T09:41:53;10.13;;;1.88;;
28774;SDS011;15926;51.348;6.596;2023-01-13T09:48:00;13.00;;;1.50;;
28774;SDS011;15926;51.348;6.596;2023-01-13T09:50:24;15.88;;;2.40;;
28774;SDS011;15926;51.348;6.596;2023-01-13T09:52:54;13.57;;;2.10;;
28774;SDS011;15926;51.348;6.596;2023-01-13T09:55:41;11.70;;;1.40;;
28774;SDS011;15926;51.348;6.596;2023-01-13T09:58:11;8.63;;;1.70;;
28774;SDS011;15926;51.348;6.596;2023-01-13T10:00:42;13.98;;;2.45;;
28774;SDS011;15926;51.348;6.596;2023-01-13T10:03:22;17.58;;;2.13;;
28774;SDS011;15926;51.348;6.596;2023-01-13T10:05:59;21.98;;;2.80;;
28774;SDS011;15926;51.348;6.596;2023-01-13T10:08:29;13.40;;;2.85;;
28774;SDS011;15926;51.348;6.596;2023-01-13T10:10:58;6.72;;;1.45;;
28774;SDS011;15926;51.348;6.596;2023-01-13T10:18:42;10.68;;;2.58;;
28774;SDS011;15926;51.348;6.596;2023-01-13T10:28:52;9.93;;;2.38;;
28774;SDS011;15926;51.348;6.596;2023-01-13T10:31:18;10.90;;;2.03;;
28774;SDS011;15926;51.348;6.596;2023-01-13T10:33:45;15.55;;;2.28;;
28774;SDS011;15926;51.348;6.596;2023-01-13T10:36:17;8.45;;;1.85;;
28774;SDS011;15926;51.348;6.596;2023-01-13T10:38:48;8.43;;;1.50;;
28774;SDS011;15926;51.348;6.596;2023-01-13T10:43:44;11.80;;;2.20;;
28774;SDS011;15926;51.348;6.596;2023-01-13T10:46:13;15.93;;;2.70;;
28774;SDS011;15926;51.348;6.596;2023-01-13T10:48:50;8.90;;;2.00;;
28774;SDS011;15926;51.348;6.596;2023-01-13T10:51:59;9.65;;;1.52;;
28774;SDS011;15926;51.348;6.596;2023-01-13T10:54:27;9.15;;;1.67;;
28774;SDS011;15926;51.348;6.596;2023-01-13T10:57:12;12.65;;;1.90;;
28774;SDS011;15926;51.348;6.596;2023-01-13T10:59:38;13.27;;;2.20;;
28774;SDS011;15926;51.348;6.596;2023-01-13T11:07:00;12.07;;;2.97;;
28774;SDS011;15926;51.348;6.596;2023-01-13T11:09:27;10.10;;;1.77;;
28774;SDS011;15926;51.348;6.596;2023-01-13T11:11:55;10.60;;;1.60;;
28774;SDS011;15926;51.348;6.596;2023-01-13T11:19:36;16.05;;;2.33;;
28774;SDS011;15926;51.348;6.596;2023-01-13T11:24:57;15.35;;;1.92;;
28774;SDS011;15926;51.348;6.596;2023-01-13T11:30:09;15.43;;;2.33;;
28774;SDS011;15926;51.348;6.596;2023-01-13T11:32:52;11.55;;;1.85;;
28774;SDS011;15926;51.348;6.596;2023-01-13T11:35:20;12.68;;;2.08;;
28774;SDS011;15926;51.348;6.596;2023-01-13T11:37:49;8.30;;;2.03;;
28774;SDS011;15926;51.348;6.596;2023-01-13T11:42:49;8.98;;;2.53;;
28774;SDS011;15926;51.348;6.596;2023-01-13T11:47:48;13.10;;;1.92;;
28774;SDS011;15926;51.348;6.596;2023-01-13T11:50:16;12.30;;;1.25;;
28774;SDS011;15926;51.348;6.596;2023-01-13T12:05:55;12.00;;;1.58;;
28774;SDS011;15926;51.348;6.596;2023-01-13T12:08:35;16.30;;;2.30;;
28774;SDS011;15926;51.348;6.596;2023-01-13T12:11:20;6.55;;;2.10;;
28774;SDS011;15926;51.348;6.596;2023-01-13T12:14:15;10.00;;;2.15;;
28774;SDS011;15926;51.348;6.596;2023-01-13T12:16:45;9.38;;;1.20;;
28774;SDS011;15926;51.348;6.596;2023-01-13T12:19:20;3.70;;;1.02;;
28774;SDS011;15926;51.348;6.596;2023-01-13T12:21:55;7.88;;;1.42;;
28774;SDS011;15926;51.348;6.596;2023-01-13T12:24:27;5.65;;;1.30;;
28774;SDS011;15926;51.348;6.596;2023-01-13T12:26:57;15.68;;;1.75;;
28774;SDS011;15926;51.348;6.596;2023-01-13T12:29:34;5.22;;;1.02;;
28774;SDS011;15926;51.348;6.596;2023-01-13T12:32:01;15.77;;;1.80;;
28774;SDS011;15926;51.348;6.596;2023-01-13T12:37:19;9.02;;;1.40;;
28774;SDS011;15926;51.348;6.596;2023-01-13T12:42:21;4.93;;;1.38;;
28774;SDS011;15926;51.348;6.596;2023-01-13T12:47:35;10.07;;;2.30;;
28774;SDS011;15926;51.348;6.596;2023-01-13T12:52:47;7.10;;;1.40;;
28774;SDS011;15926;51.348;6.596;2023-01-13T12:55:14;6.78;;;1.60;;
28774;SDS011;15926;51.348;6.596;2023-01-13T12:58:26;16.75;;;2.15;;
28774;SDS011;15926;51.348;6.596;2023-01-13T13:00:35;9.05;;;1.65;;
28774;SDS011;15926;51.348;6.596;2023-01-13T13:05:47;7.25;;;1.33;;
28774;SDS011;15926;51.348;6.596;2023-01-13T13:12:03;9.07;;;1.95;;
28774;SDS011;15926;51.348;6.596;2023-01-13T13:14:13;9.82;;;1.60;;
28774;SDS011;15926;51.348;6.596;2023-01-13T13:16:49;11.63;;;1.73;;
28774;SDS011;15926;51.348;6.596;2023-01-13T13:24:31;9.50;;;2.10;;
28774;SDS011;15926;51.348;6.596;2023-01-13T13:27:01;11.30;;;2.28;;
28774;SDS011;15926;51.348;6.596;2023-01-13T13:39:55;9.48;;;1.92;;
28774;SDS011;15926;51.348;6.596;2023-01-13T13:42:44;13.65;;;2.45;;
28774;SDS011;15926;51.348;6.596;2023-01-13T13:45:30;11.95;;;2.13;;
28774;SDS011;15926;51.348;6.596;2023-01-13T13:50:51;4.82;;;1.50;;
28774;SDS011;15926;51.348;6.596;2023-01-13T13:53:24;13.52;;;2.10;;
28774;SDS011;15926;51.348;6.596;2023-01-13T13:55:53;19.08;;;2.03;;
28774;SDS011;15926;51.348;6.596;2023-01-13T13:58:19;11.68;;;2.15;;
28774;SDS011;15926;51.348;6.596;2023-01-13T14:00:46;10.27;;;1.88;;
28774;SDS011;15926;51.348;6.596;2023-01-13T14:05:57;9.80;;;1.95;;
28774;SDS011;15926;51.348;6.596;2023-01-13T14:08:23;13.65;;;2.08;;
28774;SDS011;15926;51.348;6.596;2023-01-13T14:10:50;12.32;;;1.90;;
28774;SDS011;15926;51.348;6.596;2023-01-13T14:15:45;10.70;;;2.22;;
28774;SDS011;15926;51.348;6.596;2023-01-13T14:18:16;10.30;;;2.30;;
28774;SDS011;15926;51.348;6.596;2023-01-13T14:20:43;10.98;;;2.28;;
28774;SDS011;15926;51.348;6.596;2023-01-13T14:23:16;13.95;;;2.03;;
28774;SDS011;15926;51.348;6.596;2023-01-13T14:25:46;14.32;;;2.90;;
28774;SDS011;15926;51.348;6.596;2023-01-13T14:28:19;18.63;;;2.47;;
28774;SDS011;15926;51.348;6.596;2023-01-13T14:30:46;15.32;;;2.35;;
28774;SDS011;15926;51.348;6.596;2023-01-13T14:33:15;12.70;;;2.50;;
28774;SDS011;15926;51.348;6.596;2023-01-13T14:38:26;11.00;;;2.38;;
28774;SDS011;15926;51.348;6.596;2023-01-13T14:40:52;17.80;;;1.98;;
28774;SDS011;15926;51.348;6.596;2023-01-13T14:43:18;13.05;;;1.90;;
28774;SDS011;15926;51.348;6.596;2023-01-13T14:45:57;8.95;;;2.13;;
28774;SDS011;15926;51.348;6.596;2023-01-13T14:48:33;9.60;;;1.73;;
28774;SDS011;15926;51.348;6.596;2023-01-13T14:51:04;14.60;;;2.10;;
28774;SDS011;15926;51.348;6.596;2023-01-13T14:55:56;6.90;;;1.73;;
28774;SDS011;15926;51.348;6.596;2023-01-13T14:58:26;12.18;;;1.63;;
28774;SDS011;15926;51.348;6.596;2023-01-13T15:03:40;7.93;;;1.35;;
28774;SDS011;15926;51.348;6.596;2023-01-13T15:06:22;5.97;;;1.90;;
28774;SDS011;15926;51.348;6.596;2023-01-13T15:08:49;8.23;;;1.30;;
28774;SDS011;15926;51.348;6.596;2023-01-13T15:11:20;15.30;;;2.53;;
28774;SDS011;15926;51.348;6.596;2023-01-13T15:13:50;4.55;;;1.20;;
28774;SDS011;15926;51.348;6.596;2023-01-13T15:16:19;6.15;;;1.33;;
28774;SDS011;15926;51.348;6.596;2023-01-13T15:18:45;7.55;;;1.48;;
28774;SDS011;15926;51.348;6.596;2023-01-13T15:21:11;10.10;;;1.50;;
28774;SDS011;15926;51.348;6.596;2023-01-13T15:23:39;6.97;;;1.48;;
28774;SDS011;15926;51.348;6.596;2023-01-13T15:26:19;7.90;;;1.73;;
28774;SDS011;15926;51.348;6.596;2023-01-13T15:28:46;4.82;;;1.70;;
28774;SDS011;15926;51.348;6.596;2023-01-13T15:31:12;12.73;;;2.30;;
28774;SDS011;15926;51.348;6.596;2023-01-13T15:33:38;8.00;;;1.80;;
28774;SDS011;15926;51.348;6.596;2023-01-13T15:36:05;5.13;;;1.33;;
28774;SDS011;15926;51.348;6.596;2023-01-13T15:38:31;7.18;;;1.40;;
28774;SDS011;15926;51.348;6.596;2023-01-13T15:40:57;7.97;;;1.60;;
28774;SDS011;15926;51.348;6.596;2023-01-13T15:43:23;15.00;;;2.60;;
28774;SDS011;15926;51.348;6.596;2023-01-13T15:46:09;8.13;;;1.60;;
28774;SDS011;15926;51.348;6.596;2023-01-13T15:48:55;10.73;;;2.03;;
28774;SDS011;15926;51.348;6.596;2023-01-13T15:51:21;10.63;;;2.35;;
28774;SDS011;15926;51.348;6.596;2023-01-13T15:53:47;9.45;;;1.85;;
28774;SDS011;15926;51.348;6.596;2023-01-13T15:56:17;8.98;;;2.28;;
28774;SDS011;15926;51.348;6.596;2023-01-13T15:58:44;6.00;;;2.35;;
28774;SDS011;15926;51.348;6.596;2023-01-13T16:01:10;8.10;;;2.25;;
28774;SDS011;15926;51.348;6.596;2023-01-13T16:03:37;9.20;;;2.40;;
28774;SDS011;15926;51.348;6.596;2023-01-13T16:06:07;9.35;;;2.55;;
28774;SDS011;15926;51.348;6.596;2023-01-13T16:08:36;7.75;;;1.65;;
28774;SDS011;15926;51.348;6.596;2023-01-13T16:11:02;7.32;;;1.80;;
28774;SDS011;15926;51.348;6.596;2023-01-13T16:13:28;13.02;;;1.90;;
28774;SDS011;15926;51.348;6.596;2023-01-13T16:15:54;11.13;;;1.85;;
28774;SDS011;15926;51.348;6.596;2023-01-13T16:18:21;12.20;;;1.73;;
28774;SDS011;15926;51.348;6.596;2023-01-13T16:20:50;12.35;;;1.75;;
28774;SDS011;15926;51.348;6.596;2023-01-13T16:23:19;6.82;;;1.67;;
28774;SDS011;15926;51.348;6.596;2023-01-13T16:25:45;10.48;;;1.85;;
28774;SDS011;15926;51.348;6.596;2023-01-13T16:28:22;13.20;;;1.42;;
28774;SDS011;15926;51.348;6.596;2023-01-13T16:30:48;8.43;;;1.52;;
28774;SDS011;15926;51.348;6.596;2023-01-13T16:33:14;7.30;;;1.65;;
28774;SDS011;15926;51.348;6.596;2023-01-13T16:35:40;11.98;;;2.00;;
28774;SDS011;15926;51.348;6.596;2023-01-13T16:38:09;10.95;;;1.75;;
28774;SDS011;15926;51.348;6.596;2023-01-13T16:40:37;10.23;;;1.73;;
28774;SDS011;15926;51.348;6.596;2023-01-13T16:43:04;6.50;;;2.00;;
28774;SDS011;15926;51.348;6.596;2023-01-13T16:45:31;7.32;;;1.38;;
28774;SDS011;15926;51.348;6.596;2023-01-13T16:47:57;6.40;;;1.80;;
28774;SDS011;15926;51.348;6.596;2023-01-13T16:52:49;8.30;;;1.63;;
28774;SDS011;15926;51.348;6.596;2023-01-13T16:55:15;19.58;;;2.67;;
28774;SDS011;15926;51.348;6.596;2023-01-13T16:57:41;12.55;;;1.50;;
28774;SDS011;15926;51.348;6.596;2023-01-13T17:00:08;5.85;;;1.33;;
28774;SDS011;15926;51.348;6.596;2023-01-13T17:02:34;9.75;;;1.75;;
28774;SDS011;15926;51.348;6.596;2023-01-13T17:05:01;10.82;;;2.03;;